N70CR KLEX-KLEX
Flight info
| Callsign | N70CR |
|---|---|
| Flight time | 0h 31m |
| Altitude | 5000 |
| Route | KLEX CIRCUITS |
| Aircraft | C700/M-SBDGHM1RWXY/LB2 |
Departure
| Time | 2026-04-14 00:22 |
|---|---|
| Airport | Blue Grass Airport (KLEX) |
Arrival
| Time | 2026-04-14 00:53 |
|---|---|
| Airport | Blue Grass Airport (KLEX) |
| Time | Latitude | Longitude | Altitude | Speed | Heading |
|---|---|---|---|---|---|
| 2026-04-14 00:12 | 38.03796 | -84.59993 | 972 ft | 0 kts | 218° |
| 2026-04-14 00:14 | 38.03799 | -84.59990 | 983 ft | 4 kts | 218° |
| 2026-04-14 00:14 | 38.03814 | -84.59973 | 978 ft | 2 kts | 236° |
| 2026-04-14 00:14 | 38.03816 | -84.59960 | 976 ft | 2 kts | 300° |
| 2026-04-14 00:14 | 38.03813 | -84.59953 | 975 ft | 0 kts | 297° |
| 2026-04-14 00:18 | 38.03819 | -84.59967 | 977 ft | 6 kts | 303° |
| 2026-04-14 00:19 | 38.03870 | -84.59996 | 974 ft | 10 kts | 341° |
| 2026-04-14 00:19 | 38.03930 | -84.60018 | 979 ft | 9 kts | 356° |
| 2026-04-14 00:19 | 38.03983 | -84.59966 | 978 ft | 11 kts | 42° |
| 2026-04-14 00:19 | 38.04041 | -84.59901 | 979 ft | 10 kts | 43° |
| 2026-04-14 00:20 | 38.04086 | -84.59848 | 980 ft | 0 kts | 39° |
| 2026-04-14 00:20 | 38.04098 | -84.59836 | 976 ft | 6 kts | 39° |
| 2026-04-14 00:20 | 38.04152 | -84.59839 | 978 ft | 11 kts | 315° |
| 2026-04-14 00:21 | 38.04196 | -84.59921 | 977 ft | 10 kts | 244° |
| 2026-04-14 00:21 | 38.04159 | -84.59960 | 979 ft | 5 kts | 221° |
| 2026-04-14 00:21 | 38.04132 | -84.59990 | 975 ft | 0 kts | 220° |
| 2026-04-14 00:21 | 38.04125 | -84.59997 | 976 ft | 9 kts | 219° |
| 2026-04-14 00:22 | 38.03834 | -84.60316 | 967 ft | 108 kts | 220° |
| 2026-04-14 00:22 | 38.03108 | -84.61159 | 1460 ft | 163 kts | 222° |
| 2026-04-14 00:22 | 38.02392 | -84.62126 | 2295 ft | 143 kts | 223° |
| 2026-04-14 00:22 | 38.01647 | -84.62958 | 2963 ft | 151 kts | 220° |
| 2026-04-14 00:23 | 38.00764 | -84.63943 | 3014 ft | 175 kts | 219° |
| 2026-04-14 00:23 | 37.99643 | -84.64480 | 3013 ft | 187 kts | 183° |
| 2026-04-14 00:23 | 37.98410 | -84.63803 | 3013 ft | 207 kts | 143° |
| 2026-04-14 00:23 | 37.97740 | -84.62144 | 3013 ft | 223 kts | 105° |
| 2026-04-14 00:24 | 37.97987 | -84.60173 | 3003 ft | 235 kts | 66° |
| 2026-04-14 00:24 | 37.99049 | -84.58598 | 3009 ft | 238 kts | 42° |
| 2026-04-14 00:24 | 38.00312 | -84.57246 | 3016 ft | 238 kts | 41° |
| 2026-04-14 00:24 | 38.01587 | -84.55893 | 3017 ft | 240 kts | 40° |
| 2026-04-14 00:25 | 38.02875 | -84.54525 | 3014 ft | 242 kts | 40° |
| 2026-04-14 00:25 | 38.04180 | -84.53143 | 3017 ft | 250 kts | 39° |
| 2026-04-14 00:25 | 38.05503 | -84.51726 | 3015 ft | 246 kts | 40° |
| 2026-04-14 00:25 | 38.06802 | -84.50340 | 3013 ft | 249 kts | 40° |
| 2026-04-14 00:26 | 38.08139 | -84.48928 | 3010 ft | 248 kts | 40° |
| 2026-04-14 00:26 | 38.09461 | -84.47515 | 3008 ft | 250 kts | 40° |
| 2026-04-14 00:26 | 38.10792 | -84.46081 | 3006 ft | 250 kts | 40° |
| 2026-04-14 00:26 | 38.12104 | -84.44651 | 3008 ft | 248 kts | 40° |
| 2026-04-14 00:27 | 38.13429 | -84.43232 | 3002 ft | 249 kts | 40° |
| 2026-04-14 00:27 | 38.14758 | -84.41817 | 3001 ft | 251 kts | 40° |
| 2026-04-14 00:27 | 38.16106 | -84.40412 | 2996 ft | 248 kts | 37° |
| 2026-04-14 00:27 | 38.17672 | -84.39631 | 2982 ft | 242 kts | 0° |
| 2026-04-14 00:28 | 38.19240 | -84.40070 | 2979 ft | 229 kts | 323° |
| 2026-04-14 00:28 | 38.20295 | -84.41463 | 2981 ft | 215 kts | 292° |
| 2026-04-14 00:28 | 38.20573 | -84.43224 | 2984 ft | 200 kts | 257° |
| 2026-04-14 00:28 | 38.19937 | -84.44730 | 2878 ft | 197 kts | 221° |
| 2026-04-14 00:29 | 38.18687 | -84.45356 | 2666 ft | 199 kts | 184° |
| 2026-04-14 00:29 | 38.17403 | -84.44792 | 2596 ft | 199 kts | 147° |
| 2026-04-14 00:29 | 38.16443 | -84.43509 | 2583 ft | 198 kts | 147° |
| 2026-04-14 00:29 | 38.15247 | -84.42807 | 2587 ft | 180 kts | 175° |
| 2026-04-14 00:30 | 38.14100 | -84.42925 | 2587 ft | 163 kts | 201° |
| 2026-04-14 00:30 | 38.13185 | -84.43739 | 2586 ft | 163 kts | 228° |
| 2026-04-14 00:30 | 38.12789 | -84.45079 | 2586 ft | 172 kts | 266° |
| 2026-04-14 00:30 | 38.13344 | -84.46471 | 2592 ft | 192 kts | 311° |
| 2026-04-14 00:31 | 38.14632 | -84.47088 | 2590 ft | 209 kts | 354° |
| 2026-04-14 00:31 | 38.16024 | -84.46532 | 2586 ft | 217 kts | 36° |
| 2026-04-14 00:31 | 38.16913 | -84.45029 | 2590 ft | 212 kts | 70° |
| 2026-04-14 00:31 | 38.17496 | -84.43358 | 2741 ft | 206 kts | 70° |
| 2026-04-14 00:32 | 38.18672 | -84.39934 | 2995 ft | 220 kts | 70° |
| 2026-04-14 00:32 | 38.19265 | -84.38160 | 2993 ft | 216 kts | 71° |
| 2026-04-14 00:32 | 38.19845 | -84.36407 | 2990 ft | 215 kts | 70° |
| 2026-04-14 00:33 | 38.20750 | -84.34913 | 2964 ft | 216 kts | 32° |
| 2026-04-14 00:33 | 38.22154 | -84.34459 | 2963 ft | 208 kts | 348° |
| 2026-04-14 00:33 | 38.23378 | -84.35204 | 2977 ft | 190 kts | 304° |
| 2026-04-14 00:33 | 38.23824 | -84.36643 | 2976 ft | 171 kts | 261° |
| 2026-04-14 00:34 | 38.23378 | -84.37956 | 2982 ft | 162 kts | 230° |
| 2026-04-14 00:34 | 38.22620 | -84.38995 | 2999 ft | 164 kts | 226° |
| 2026-04-14 00:34 | 38.21802 | -84.40018 | 2993 ft | 165 kts | 223° |
| 2026-04-14 00:34 | 38.20965 | -84.40989 | 2995 ft | 160 kts | 222° |
| 2026-04-14 00:35 | 38.20121 | -84.41929 | 3005 ft | 162 kts | 220° |
| 2026-04-14 00:35 | 38.19272 | -84.42897 | 2899 ft | 166 kts | 223° |
| 2026-04-14 00:35 | 38.18421 | -84.43863 | 2729 ft | 162 kts | 220° |
| 2026-04-14 00:35 | 38.17574 | -84.44807 | 2599 ft | 162 kts | 220° |
| 2026-04-14 00:36 | 38.16749 | -84.45758 | 2607 ft | 161 kts | 218° |
| 2026-04-14 00:36 | 38.16185 | -84.46366 | 2607 ft | 159 kts | 219° |
| 2026-04-14 00:36 | 38.15102 | -84.47619 | 2605 ft | 161 kts | 220° |
| 2026-04-14 00:36 | 38.14253 | -84.48550 | 2602 ft | 162 kts | 220° |
| 2026-04-14 00:37 | 38.13423 | -84.49516 | 2603 ft | 162 kts | 221° |
| 2026-04-14 00:37 | 38.12570 | -84.50452 | 2606 ft | 162 kts | 220° |
| 2026-04-14 00:37 | 38.11727 | -84.51411 | 2608 ft | 161 kts | 223° |
| 2026-04-14 00:37 | 38.11193 | -84.52029 | 2606 ft | 152 kts | 221° |
| 2026-04-14 00:38 | 38.10457 | -84.52839 | 2631 ft | 128 kts | 221° |
| 2026-04-14 00:38 | 38.09810 | -84.53588 | 2496 ft | 125 kts | 221° |
| 2026-04-14 00:38 | 38.09154 | -84.54306 | 2332 ft | 121 kts | 221° |
| 2026-04-14 00:38 | 38.08350 | -84.55227 | 2122 ft | 114 kts | 218° |
| 2026-04-14 00:39 | 38.07750 | -84.55899 | 1966 ft | 116 kts | 220° |
| 2026-04-14 00:39 | 38.07349 | -84.56369 | 1869 ft | 116 kts | 219° |
| 2026-04-14 00:39 | 38.06730 | -84.57021 | 1702 ft | 125 kts | 218° |
| 2026-04-14 00:39 | 38.06094 | -84.57749 | 1519 ft | 119 kts | 221° |
| 2026-04-14 00:40 | 38.05453 | -84.58510 | 1359 ft | 122 kts | 220° |
| 2026-04-14 00:40 | 38.04816 | -84.59202 | 1178 ft | 123 kts | 219° |
| 2026-04-14 00:40 | 38.04176 | -84.59929 | 1092 ft | 119 kts | 219° |
| 2026-04-14 00:40 | 38.03243 | -84.61098 | 1484 ft | 161 kts | 220° |
| 2026-04-14 00:41 | 38.02614 | -84.61703 | 2038 ft | 175 kts | 203° |
| 2026-04-14 00:41 | 38.01408 | -84.61729 | 2711 ft | 172 kts | 166° |
| 2026-04-14 00:41 | 38.00424 | -84.60761 | 2970 ft | 204 kts | 132° |
| 2026-04-14 00:41 | 37.99921 | -84.59068 | 3264 ft | 222 kts | 108° |
| 2026-04-14 00:42 | 37.99694 | -84.57079 | 3153 ft | 227 kts | 104° |
| 2026-04-14 00:42 | 37.99339 | -84.55167 | 3045 ft | 220 kts | 119° |
| 2026-04-14 00:42 | 37.98715 | -84.53423 | 2984 ft | 216 kts | 123° |
| 2026-04-14 00:42 | 37.98054 | -84.51715 | 2916 ft | 216 kts | 123° |
| 2026-04-14 00:43 | 37.97459 | -84.49976 | 2958 ft | 215 kts | 120° |
| 2026-04-14 00:43 | 37.96893 | -84.48199 | 3014 ft | 219 kts | 120° |
| 2026-04-14 00:43 | 37.96539 | -84.46297 | 3007 ft | 233 kts | 94° |
| 2026-04-14 00:43 | 37.97080 | -84.44370 | 3002 ft | 241 kts | 55° |
| 2026-04-14 00:44 | 37.98401 | -84.43134 | 2990 ft | 237 kts | 16° |
| 2026-04-14 00:44 | 37.99999 | -84.42865 | 2995 ft | 229 kts | 356° |
| 2026-04-14 00:44 | 38.01590 | -84.42820 | 3008 ft | 231 kts | 356° |
| 2026-04-14 00:44 | 38.03212 | -84.42790 | 3011 ft | 234 kts | 355° |
| 2026-04-14 00:45 | 38.04830 | -84.42753 | 3006 ft | 230 kts | 356° |
| 2026-04-14 00:45 | 38.06431 | -84.42714 | 3005 ft | 232 kts | 355° |
| 2026-04-14 00:45 | 38.08050 | -84.42668 | 3006 ft | 232 kts | 356° |
| 2026-04-14 00:45 | 38.09627 | -84.42610 | 3007 ft | 228 kts | 356° |
| 2026-04-14 00:46 | 38.11227 | -84.42560 | 3006 ft | 233 kts | 356° |
| 2026-04-14 00:46 | 38.12845 | -84.42441 | 2994 ft | 236 kts | 8° |
| 2026-04-14 00:46 | 38.14335 | -84.41523 | 2993 ft | 242 kts | 34° |
| 2026-04-14 00:46 | 38.15715 | -84.40322 | 2990 ft | 239 kts | 33° |
| 2026-04-14 00:47 | 38.17151 | -84.39307 | 2983 ft | 236 kts | 12° |
| 2026-04-14 00:47 | 38.18734 | -84.39357 | 2984 ft | 223 kts | 333° |
| 2026-04-14 00:47 | 38.19876 | -84.40506 | 2984 ft | 204 kts | 294° |
| 2026-04-14 00:47 | 38.20152 | -84.42160 | 2983 ft | 188 kts | 255° |
| 2026-04-14 00:48 | 38.19507 | -84.43518 | 2986 ft | 182 kts | 217° |
| 2026-04-14 00:48 | 38.18378 | -84.44199 | 2987 ft | 181 kts | 208° |
| 2026-04-14 00:48 | 38.17363 | -84.45144 | 2994 ft | 183 kts | 219° |
| 2026-04-14 00:48 | 38.16379 | -84.46178 | 3006 ft | 184 kts | 219° |
| 2026-04-14 00:49 | 38.15428 | -84.47226 | 3006 ft | 179 kts | 222° |
| 2026-04-14 00:49 | 38.14499 | -84.48301 | 3007 ft | 182 kts | 221° |
| 2026-04-14 00:49 | 38.13563 | -84.49328 | 3000 ft | 172 kts | 221° |
| 2026-04-14 00:49 | 38.12653 | -84.50384 | 2861 ft | 180 kts | 222° |
| 2026-04-14 00:50 | 38.11752 | -84.51380 | 2715 ft | 163 kts | 221° |
| 2026-04-14 00:50 | 38.11004 | -84.52233 | 2615 ft | 130 kts | 223° |
| 2026-04-14 00:50 | 38.10377 | -84.52942 | 2603 ft | 115 kts | 219° |
| 2026-04-14 00:50 | 38.09791 | -84.53594 | 2487 ft | 112 kts | 221° |
| 2026-04-14 00:51 | 38.09212 | -84.54252 | 2337 ft | 115 kts | 219° |
| 2026-04-14 00:51 | 38.08613 | -84.54920 | 2188 ft | 112 kts | 222° |
| 2026-04-14 00:51 | 38.08039 | -84.55569 | 2046 ft | 112 kts | 218° |
| 2026-04-14 00:51 | 38.07460 | -84.56239 | 1895 ft | 114 kts | 221° |
| 2026-04-14 00:52 | 38.06843 | -84.56915 | 1717 ft | 119 kts | 219° |
| 2026-04-14 00:52 | 38.06206 | -84.57636 | 1557 ft | 122 kts | 220° |
| 2026-04-14 00:52 | 38.05560 | -84.58364 | 1384 ft | 129 kts | 219° |
| 2026-04-14 00:52 | 38.04944 | -84.59091 | 1249 ft | 119 kts | 220° |
| 2026-04-14 00:53 | 38.04290 | -84.59805 | 1045 ft | 124 kts | 219° |
| 2026-04-14 00:53 | 38.03705 | -84.60464 | 968 ft | 93 kts | 218° |
| 2026-04-14 00:53 | 38.03398 | -84.60801 | 958 ft | 12 kts | 223° |
| 2026-04-14 00:53 | 38.03313 | -84.60799 | 954 ft | 16 kts | 132° |
| 2026-04-14 00:54 | 38.03370 | -84.60696 | 958 ft | 18 kts | 36° |
| 2026-04-14 00:54 | 38.03470 | -84.60586 | 961 ft | 20 kts | 43° |
| 2026-04-14 00:54 | 38.03583 | -84.60457 | 965 ft | 23 kts | 40° |
| 2026-04-14 00:54 | 38.03685 | -84.60290 | 966 ft | 26 kts | 64° |
| 2026-04-14 00:55 | 38.03733 | -84.60155 | 967 ft | 12 kts | 91° |
| 2026-04-14 00:55 | 38.03672 | -84.60104 | 969 ft | 10 kts | 166° |
| 2026-04-14 00:55 | 38.03635 | -84.60093 | 968 ft | 7 kts | 164° |
| 2026-04-14 00:55 | 38.03588 | -84.60062 | 966 ft | 5 kts | 148° |
| 2026-04-14 00:56 | 38.03547 | -84.60026 | 970 ft | 9 kts | 136° |
| 2026-04-14 00:56 | 38.03517 | -84.59938 | 968 ft | 13 kts | 100° |
| 2026-04-14 00:56 | 38.03532 | -84.59868 | 970 ft | 8 kts | 53° |
| 2026-04-14 00:56 | 38.03580 | -84.59808 | 972 ft | 7 kts | 40° |
| 2026-04-14 00:57 | 38.03564 | -84.59783 | 979 ft | 7 kts | 203° |
| 2026-04-14 00:57 | 38.03530 | -84.59779 | 972 ft | 4 kts | 153° |
| 2026-04-14 00:57 | 38.03529 | -84.59779 | 972 ft | 0 kts | 153° |